Weather forecast for Kerch (Керчь)

Ukraine, 10 m
N45.193, E36.303


Sounding

Red line — air temperature ˚C.
Blue line — thermal bubble temperature ˚C.
Green line — dew point temperature ˚C.
Wind speed is in meters per second.

Table forecast

GFS 0.25˚ model

temp. wind gust humid. clouds prec. press. hpbl
Sun21 00:00 7 185.0 s 6 11 85 100 0.1 1012 331
03:00 7 188.0 s 7 13 75 100 0.3 1010 455
06:00 7 190.0 s 7 13 74 100 2.7 1008 698
09:00 8 209.0 ssw 9 16 82 100 5.6 1008 896
12:00 4 294.0 wnw 9 13 80 59 0.3 1012 618
15:00 4 328.0 nnw 6 9 75 37 0.3 1014 465
18:00 2 21.0 nne 2 3 80 67 0.0 1017 261
21:00 2 58.0 ene 4 6 82 83 0.0 1016 267
 
Mon22 00:00 2 75.0 ene 6 10 85 100 0.2 1014 375
03:00 2 61.0 ene 7 11 89 100 2.4 1013 337
06:00 2 74.0 ene 10 16 92 100 0.1 1010 379
09:00 3 84.0 e 10 15 90 100 0.1 1008 390
12:00 4 92.0 e 8 12 83 100 0.1 1006 356
15:00 7 105.0 ese 7 11 74 100 0.1 1004 423
18:00 6 94.0 e 4 8 86 100 0.0 1004 161
21:00 7 122.0 ese 3 4 92 100 0.1 1004 81
 
Tue23 00:00 7 149.0 sse 3 3 89 100 0.0 1004 50
03:00 6 145.0 se 1 1 91 100 0.3 1004 22
06:00 6 307.0 nw 1 1 97 100 1.8 1004 34
09:00 5 299.0 wnw 5 7 96 98 1.9 1005 253
12:00 4 299.0 wnw 7 11 90 100 0.1 1007 355
15:00 2 323.0 nw 10 14 86 100 0.1 1008 465
18:00 0 326.0 nw 9 14 90 100 0.7 1010 537
21:00 -1 323.0 nw 10 14 90 100 2.0 1013 613
 
Wed24 00:00 -2 320.0 nw 10 15 84 100 0.4 1015 725
03:00 -2 321.0 nw 10 14 83 91 0.4 1017 799
06:00 -2 319.0 nw 9 13 82 94 0.1 1019 918
09:00 -2 316.0 nw 8 12 82 95 0.3 1021 840
12:00 -2 315.0 nw 8 10 79 99 0.2 1023 917
15:00 -2 312.0 nw 7 9 78 99 0.4 1024 822
18:00 -3 308.0 nw 5 8 81 90 0.1 1026 766
21:00 -3 298.0 wnw 4 5 80 94 0.2 1027 635
 
Thu25 00:00 -3 293.0 wnw 2 4 82 78 0.1 1027 223
03:00 -4 299.0 wnw 2 2 84 40 0.1 1027 49
06:00 -4 45.0 ne 2 2 83 1 0.0 1027 49
09:00 -2 76.0 ene 5 8 80 1 0.0 1028 374
12:00 1 69.0 ene 7 10 72 100 0.0 1028 509
15:00 2 55.0 ne 8 12 69 100 0.0 1027 843
18:00 1 54.0 ne 8 14 77 100 0.0 1026 685
21:00 1 61.0 ene 9 15 85 100 0.0 1026 736
 

0.015 s